createdAt,value
2023-02-12T00:00:53.245Z,100.00
2023-02-12T00:03:19.897Z,100.00
2023-02-12T00:05:46.502Z,100.00
2023-02-12T00:08:14.277Z,100.00
2023-02-12T00:10:43.156Z,100.00
2023-02-12T00:13:13.399Z,100.00
2023-02-12T00:15:43.548Z,100.00
2023-02-12T00:18:10.733Z,100.00
2023-02-12T00:20:38.848Z,100.00
2023-02-12T00:23:06.272Z,100.00
2023-02-12T00:25:33.884Z,100.00
2023-02-12T00:28:00.540Z,100.00
2023-02-12T00:30:27.382Z,100.00
2023-02-12T00:32:55.207Z,100.00
2023-02-12T00:35:21.807Z,100.00
2023-02-12T00:37:49.995Z,100.00
2023-02-12T00:40:16.676Z,100.00
2023-02-12T00:42:43.277Z,100.00
2023-02-12T00:45:10.190Z,100.00
2023-02-12T00:47:36.771Z,100.00
2023-02-12T00:50:03.535Z,100.00
2023-02-12T00:52:30.152Z,100.00
2023-02-12T00:54:57.635Z,100.00
2023-02-12T00:57:24.225Z,100.00
2023-02-12T00:59:50.889Z,100.00
2023-02-12T01:02:18.151Z,100.00
2023-02-12T01:04:45.723Z,100.00
2023-02-12T01:07:12.300Z,100.00
2023-02-12T01:09:38.993Z,100.00
2023-02-12T01:12:06.262Z,100.00
2023-02-12T01:14:33.116Z,100.00
2023-02-12T01:16:59.687Z,100.00
2023-02-12T01:19:26.327Z,100.00
2023-02-12T01:21:52.933Z,100.00
2023-02-12T01:24:19.523Z,100.00
2023-02-12T01:26:46.106Z,100.00
2023-02-12T01:29:12.694Z,100.00
2023-02-12T01:31:39.743Z,100.00
2023-02-12T01:34:07.475Z,100.00
2023-02-12T01:36:35.307Z,100.00
2023-02-12T01:39:03.072Z,100.00
2023-02-12T01:41:36.190Z,100.00
2023-02-12T01:44:21.399Z,100.00
2023-02-12T01:46:57.005Z,100.00
2023-02-12T01:49:30.759Z,100.00
2023-02-12T01:52:13.302Z,100.00
2023-02-12T01:54:40.563Z,100.00
2023-02-12T01:57:09.431Z,100.00
2023-02-12T01:59:38.636Z,100.00
2023-02-12T02:02:05.708Z,100.00
2023-02-12T02:04:48.541Z,100.00
2023-02-12T02:07:15.284Z,100.00
2023-02-12T02:09:42.509Z,100.00
2023-02-12T02:12:27.741Z,100.00
2023-02-12T02:15:00.183Z,100.00
2023-02-12T02:17:38.831Z,100.00
2023-02-12T02:20:19.306Z,100.00
2023-02-12T02:23:13.008Z,100.00
2023-02-12T02:26:17.078Z,100.00
2023-02-12T02:28:58.162Z,100.00
2023-02-12T02:31:35.852Z,100.00
2023-02-12T02:34:28.996Z,100.00
2023-02-12T02:37:16.018Z,100.00
2023-02-12T02:39:54.046Z,100.00
2023-02-12T02:42:35.331Z,100.00
2023-02-12T02:45:26.438Z,100.00
2023-02-12T02:47:58.744Z,100.00
2023-02-12T02:50:29.232Z,100.00
2023-02-12T02:53:10.423Z,100.00
2023-02-12T02:55:43.002Z,100.00
2023-02-12T02:58:16.194Z,100.00
2023-02-12T03:00:48.916Z,100.00
2023-02-12T03:03:24.015Z,100.00
2023-02-12T03:05:55.410Z,100.00
2023-02-12T03:08:36.180Z,100.00
2023-02-12T03:11:15.019Z,100.00
2023-02-12T03:14:04.803Z,100.00
2023-02-12T03:16:39.729Z,100.00
2023-02-12T03:19:15.445Z,100.00
2023-02-12T03:21:50.081Z,100.00
2023-02-12T03:24:24.000Z,100.00
2023-02-12T03:27:02.494Z,100.00
2023-02-12T03:29:29.236Z,100.00
2023-02-12T03:32:27.747Z,100.00
2023-02-12T03:35:08.823Z,100.00
2023-02-12T03:38:16.627Z,100.00
2023-02-12T03:40:55.503Z,100.00
2023-02-12T03:43:30.337Z,100.00
2023-02-12T03:46:15.310Z,100.00
2023-02-12T03:48:52.865Z,100.00
2023-02-12T03:51:32.740Z,100.00
2023-02-12T03:54:01.354Z,100.00
2023-02-12T03:56:54.190Z,100.00
2023-02-12T03:59:23.800Z,100.00
2023-02-12T04:01:53.538Z,100.00
2023-02-12T04:04:21.150Z,100.00
2023-02-12T04:06:50.477Z,100.00
2023-02-12T04:09:17.670Z,100.00
2023-02-12T04:11:59.242Z,100.00
2023-02-12T04:14:34.776Z,100.00
2023-02-12T04:17:29.103Z,100.00
2023-02-12T04:20:21.964Z,100.00
2023-02-12T04:22:59.687Z,100.00
2023-02-12T04:25:51.133Z,100.00
2023-02-12T04:28:20.376Z,100.00
2023-02-12T04:31:01.392Z,100.00
2023-02-12T04:33:43.672Z,100.00
2023-02-12T04:36:18.170Z,100.00
2023-02-12T04:38:51.754Z,100.00
2023-02-12T04:41:18.627Z,100.00
2023-02-12T04:43:45.559Z,100.00
2023-02-12T04:46:12.136Z,100.00
2023-02-12T04:48:51.980Z,100.00
2023-02-12T04:51:18.598Z,100.00
2023-02-12T04:53:45.199Z,100.00
2023-02-12T04:56:13.291Z,100.00
2023-02-12T04:58:41.342Z,100.00
2023-02-12T05:01:09.166Z,100.00
2023-02-12T05:03:36.465Z,100.00
2023-02-12T05:06:05.213Z,100.00
2023-02-12T05:08:32.025Z,100.00
2023-02-12T05:11:04.249Z,100.00
2023-02-12T05:13:30.883Z,100.00
2023-02-12T05:15:57.705Z,100.00
2023-02-12T05:18:24.916Z,100.00
2023-02-12T05:21:03.479Z,100.00
2023-02-12T05:23:31.855Z,100.00
2023-02-12T05:25:59.545Z,100.00
2023-02-12T05:28:26.837Z,100.00
2023-02-12T05:30:53.503Z,100.00
2023-02-12T05:33:20.228Z,100.00
2023-02-12T05:35:46.802Z,100.00
2023-02-12T05:38:13.409Z,100.00
2023-02-12T05:40:40.372Z,100.00
2023-02-12T05:43:06.969Z,100.00
2023-02-12T05:45:33.557Z,100.00
2023-02-12T05:48:00.203Z,100.00
2023-02-12T05:50:26.801Z,100.00
2023-02-12T05:53:01.173Z,100.00
2023-02-12T05:55:27.852Z,100.00
2023-02-12T05:57:54.896Z,100.00
2023-02-12T06:00:21.941Z,100.00
2023-02-12T06:02:48.529Z,100.00
2023-02-12T06:05:15.189Z,100.00
2023-02-12T06:07:41.812Z,100.00
2023-02-12T06:10:08.996Z,100.00
2023-02-12T06:12:35.563Z,100.00
2023-02-12T06:15:02.156Z,100.00
2023-02-12T06:17:28.764Z,100.00
2023-02-12T06:19:55.352Z,100.00
2023-02-12T06:22:21.921Z,100.00
2023-02-12T06:24:48.506Z,100.00
2023-02-12T06:27:15.071Z,100.00
2023-02-12T06:29:41.779Z,100.00
2023-02-12T06:32:08.594Z,100.00
2023-02-12T06:34:35.481Z,100.00
2023-02-12T06:37:02.098Z,100.00
2023-02-12T06:39:28.715Z,100.00
2023-02-12T06:41:55.312Z,100.00
2023-02-12T06:44:21.942Z,100.00
2023-02-12T06:46:48.771Z,100.00
2023-02-12T06:49:16.285Z,100.00
2023-02-12T06:51:42.977Z,100.00
2023-02-12T06:54:17.859Z,100.00
2023-02-12T06:56:45.036Z,100.00
2023-02-12T06:59:15.345Z,100.00
2023-02-12T07:01:41.982Z,100.00
2023-02-12T07:04:09.123Z,100.00
2023-02-12T07:06:36.492Z,100.00
2023-02-12T07:09:04.815Z,100.00
2023-02-12T07:11:36.856Z,100.00
2023-02-12T07:14:04.624Z,100.00
2023-02-12T07:16:31.318Z,100.00
2023-02-12T07:18:58.207Z,100.00
2023-02-12T07:21:24.842Z,100.00
2023-02-12T07:23:52.991Z,100.00
2023-02-12T07:26:21.208Z,100.00
2023-02-12T07:28:48.581Z,100.00
2023-02-12T07:31:21.179Z,100.00
2023-02-12T07:33:48.777Z,100.00
2023-02-12T07:36:18.277Z,100.00
2023-02-12T07:38:45.714Z,100.00
2023-02-12T07:41:23.186Z,100.00
2023-02-12T07:43:54.571Z,100.00
2023-02-12T07:46:29.899Z,99.39
2023-02-12T07:49:02.757Z,98.99
2023-02-12T07:51:29.377Z,97.98
2023-02-12T07:53:56.665Z,98.61
2023-02-12T07:56:29.577Z,98.89
2023-02-12T07:58:56.870Z,98.53
2023-02-12T08:01:31.123Z,97.43
2023-02-12T08:04:00.598Z,96.67
2023-02-12T08:06:29.813Z,95.06
2023-02-12T08:08:59.541Z,95.57
2023-02-12T08:11:27.975Z,95.38
2023-02-12T08:13:55.041Z,95.55
2023-02-12T08:16:24.458Z,94.96
2023-02-12T08:18:52.017Z,95.03
2023-02-12T08:21:25.062Z,95.38
2023-02-12T08:23:53.453Z,95.03
2023-02-12T08:26:39.581Z,95.65
2023-02-12T08:29:09.626Z,95.72
2023-02-12T08:31:39.073Z,96.97
2023-02-12T08:34:06.128Z,97.00
2023-02-12T08:36:40.191Z,96.17
2023-02-12T08:39:08.052Z,95.32
2023-02-12T08:41:35.315Z,94.31
2023-02-12T08:44:04.267Z,94.16
2023-02-12T08:46:34.181Z,94.49
2023-02-12T08:49:06.812Z,94.39
2023-02-12T08:51:35.892Z,95.27
2023-02-12T08:54:05.848Z,92.37
2023-02-12T08:56:34.175Z,91.57
2023-02-12T08:59:02.613Z,92.05
2023-02-12T09:01:33.435Z,91.78
2023-02-12T09:04:00.693Z,91.23
2023-02-12T09:06:28.273Z,91.66
2023-02-12T09:08:55.860Z,90.84
2023-02-12T09:11:30.505Z,88.75
2023-02-12T09:14:03.177Z,89.81
2023-02-12T09:16:31.675Z,90.45
2023-02-12T09:18:58.438Z,89.80
2023-02-12T09:21:25.566Z,90.79
2023-02-12T09:23:52.524Z,89.47
2023-02-12T09:26:22.100Z,88.99
2023-02-12T09:28:50.376Z,88.26
2023-02-12T09:31:29.258Z,89.31
2023-02-12T09:33:59.670Z,90.25
2023-02-12T09:36:26.611Z,90.14
2023-02-12T09:38:54.264Z,90.87
2023-02-12T09:42:04.796Z,91.20
2023-02-12T09:44:50.379Z,93.57
2023-02-12T09:47:31.080Z,93.34
2023-02-12T09:50:15.955Z,92.52
2023-02-12T09:52:43.093Z,93.45
2023-02-12T09:55:16.271Z,94.06
2023-02-12T09:57:43.713Z,94.95
2023-02-12T10:00:16.369Z,93.48
2023-02-12T10:02:42.997Z,92.57
2023-02-12T10:05:38.616Z,92.33
2023-02-12T10:08:36.140Z,91.15
2023-02-12T10:11:41.773Z,91.78
2023-02-12T10:14:27.197Z,91.71
2023-02-12T10:17:07.861Z,93.52
2023-02-12T10:19:50.693Z,92.46
2023-02-12T10:22:26.254Z,91.64
2023-02-12T10:25:19.931Z,92.28
2023-02-12T10:27:52.038Z,92.32
2023-02-12T10:30:24.649Z,92.59
2023-02-12T10:32:58.833Z,93.50
2023-02-12T10:35:25.990Z,93.61
2023-02-12T10:37:59.775Z,93.15
2023-02-12T10:40:30.303Z,91.39
2023-02-12T10:42:57.921Z,90.84
2023-02-12T10:45:26.672Z,90.86
2023-02-12T10:48:05.794Z,90.27
2023-02-12T10:50:48.811Z,89.62
2023-02-12T10:53:20.917Z,89.17
2023-02-12T10:55:48.184Z,90.40
2023-02-12T10:58:21.910Z,90.46
2023-02-12T11:00:57.117Z,89.05
2023-02-12T11:03:29.035Z,89.11
2023-02-12T11:05:56.595Z,88.18
2023-02-12T11:08:29.089Z,88.39
2023-02-12T11:10:56.080Z,87.69
2023-02-12T11:13:26.245Z,88.35
2023-02-12T11:15:53.935Z,87.89
2023-02-12T11:18:32.735Z,85.42
2023-02-12T11:21:11.468Z,85.01
2023-02-12T11:23:43.236Z,84.65
2023-02-12T11:26:18.824Z,85.43
2023-02-12T11:29:01.549Z,83.27
2023-02-12T11:31:30.781Z,83.36
2023-02-12T11:34:12.719Z,83.12
2023-02-12T11:36:46.480Z,83.21
2023-02-12T11:39:50.351Z,85.26
2023-02-12T11:42:25.820Z,85.84
2023-02-12T11:44:59.888Z,84.55
2023-02-12T11:47:33.977Z,85.75
2023-02-12T11:50:03.505Z,85.54
2023-02-12T11:52:33.804Z,85.97
2023-02-12T11:55:06.852Z,85.26
2023-02-12T11:57:39.215Z,85.12
2023-02-12T12:00:15.837Z,86.23
2023-02-12T12:02:55.050Z,85.70
2023-02-12T12:05:22.766Z,86.13
2023-02-12T12:07:57.058Z,85.72
2023-02-12T12:10:37.659Z,84.45
2023-02-12T12:13:16.567Z,84.54
2023-02-12T12:16:08.554Z,84.65
2023-02-12T12:19:25.279Z,85.63
2023-02-12T12:22:08.483Z,84.56
2023-02-12T12:24:45.233Z,84.69
2023-02-12T12:27:45.164Z,85.33
2023-02-12T12:30:36.535Z,85.66
2023-02-12T12:33:10.314Z,86.15
2023-02-12T12:36:08.764Z,86.00
2023-02-12T12:39:06.912Z,83.91
2023-02-12T12:41:50.302Z,85.16
2023-02-12T12:44:38.746Z,85.14
2023-02-12T12:47:26.563Z,84.47
2023-02-12T12:49:58.302Z,85.96
2023-02-12T12:52:43.252Z,85.62
2023-02-12T12:55:31.550Z,85.59
2023-02-12T12:58:09.979Z,85.34
2023-02-12T13:00:42.267Z,86.08
2023-02-12T13:03:20.937Z,85.67
2023-02-12T13:06:04.079Z,84.15
2023-02-12T13:08:38.247Z,83.71
2023-02-12T13:11:13.773Z,83.73
2023-02-12T13:13:46.215Z,82.60
2023-02-12T13:16:30.317Z,82.45
2023-02-12T13:19:08.965Z,82.33
2023-02-12T13:21:43.322Z,82.88
2023-02-12T13:24:25.103Z,82.88
2023-02-12T13:26:56.396Z,82.93
2023-02-12T13:29:28.689Z,82.30
2023-02-12T13:32:00.300Z,82.85
2023-02-12T13:34:30.762Z,82.63
2023-02-12T13:37:01.121Z,83.38
2023-02-12T13:39:34.176Z,83.13
2023-02-12T13:42:06.853Z,83.07
2023-02-12T13:44:48.658Z,83.16
2023-02-12T13:47:33.597Z,82.72
2023-02-12T13:50:28.507Z,82.88
2023-02-12T13:53:02.319Z,81.70
2023-02-12T13:55:39.367Z,81.40
2023-02-12T13:58:31.181Z,81.95
2023-02-12T14:01:02.062Z,82.09
2023-02-12T14:03:30.883Z,83.12
2023-02-12T14:06:24.953Z,82.48
2023-02-12T14:08:54.706Z,82.42
2023-02-12T14:11:24.367Z,82.19
2023-02-12T14:13:58.489Z,82.42
2023-02-12T14:16:31.188Z,82.72
2023-02-12T14:19:35.082Z,84.23
2023-02-12T14:22:09.724Z,82.93
2023-02-12T14:24:36.328Z,82.55
2023-02-12T14:27:17.482Z,83.45
2023-02-12T14:30:11.923Z,83.10
2023-02-12T14:33:07.769Z,83.39
2023-02-12T14:35:42.272Z,83.84
2023-02-12T14:38:11.590Z,83.55
2023-02-12T14:40:47.012Z,83.90
2023-02-12T14:44:02.139Z,83.58
2023-02-12T14:46:28.718Z,84.81
2023-02-12T14:48:58.059Z,83.39
2023-02-12T14:51:46.809Z,83.44
2023-02-12T14:54:18.731Z,84.10
2023-02-12T14:56:48.616Z,84.06
2023-02-12T14:59:20.506Z,84.94
2023-02-12T15:01:48.791Z,85.13
2023-02-12T15:04:25.876Z,84.69
2023-02-12T15:06:57.674Z,83.74
2023-02-12T15:09:35.754Z,84.80
2023-02-12T15:12:12.735Z,84.05
2023-02-12T15:14:48.399Z,84.74
2023-02-12T15:17:22.999Z,84.02
2023-02-12T15:20:02.771Z,84.15
2023-02-12T15:22:35.574Z,84.06
2023-02-12T15:25:34.733Z,84.87
2023-02-12T15:28:30.516Z,84.22
2023-02-12T15:30:57.522Z,84.63
2023-02-12T15:33:30.405Z,84.75
2023-02-12T15:35:58.169Z,85.73
2023-02-12T15:38:41.581Z,85.78
2023-02-12T15:41:23.298Z,85.74
2023-02-12T15:43:49.856Z,85.25
2023-02-12T15:46:18.272Z,85.56
2023-02-12T15:48:45.301Z,86.14
2023-02-12T15:51:37.291Z,86.28
2023-02-12T15:54:06.725Z,86.01
2023-02-12T15:56:36.280Z,86.33
2023-02-12T15:59:04.071Z,87.52
2023-02-12T16:01:35.563Z,88.36
2023-02-12T16:04:06.696Z,88.08
2023-02-12T16:06:36.992Z,87.97
2023-02-12T16:09:13.119Z,87.50
2023-02-12T16:11:43.834Z,87.93
2023-02-12T16:14:22.675Z,87.80
2023-02-12T16:16:52.909Z,88.61
2023-02-12T16:19:23.643Z,88.81
2023-02-12T16:21:56.598Z,89.24
2023-02-12T16:24:31.124Z,89.08
2023-02-12T16:27:05.199Z,89.57
2023-02-12T16:29:33.959Z,89.91
2023-02-12T16:32:02.675Z,90.08
2023-02-12T16:34:36.161Z,89.91
2023-02-12T16:37:24.182Z,89.90
2023-02-12T16:39:53.800Z,90.21
2023-02-12T16:42:24.830Z,90.33
2023-02-12T16:44:51.422Z,90.69
2023-02-12T16:47:23.808Z,90.84
2023-02-12T16:50:00.295Z,91.05
2023-02-12T16:52:40.202Z,91.50
2023-02-12T16:55:14.029Z,92.07
2023-02-12T16:57:40.872Z,92.53
2023-02-12T17:00:09.913Z,92.31
2023-02-12T17:02:37.487Z,92.57
2023-02-12T17:05:07.180Z,92.99
2023-02-12T17:07:34.660Z,92.89
2023-02-12T17:10:01.475Z,93.27
2023-02-12T17:12:28.372Z,93.79
2023-02-12T17:14:55.993Z,94.34
2023-02-12T17:17:23.062Z,94.65
2023-02-12T17:19:50.010Z,95.26
2023-02-12T17:22:21.932Z,95.04
2023-02-12T17:24:51.756Z,95.11
2023-02-12T17:27:19.480Z,95.69
2023-02-12T17:29:46.500Z,95.77
2023-02-12T17:32:13.172Z,95.65
2023-02-12T17:34:48.449Z,94.97
2023-02-12T17:37:15.627Z,94.92
2023-02-12T17:39:42.161Z,94.49
2023-02-12T17:42:08.783Z,95.23
2023-02-12T17:44:35.345Z,95.76
2023-02-12T17:47:01.915Z,95.72
2023-02-12T17:49:30.180Z,95.50
2023-02-12T17:51:56.766Z,94.32
2023-02-12T17:54:23.434Z,94.26
2023-02-12T17:56:50.012Z,94.41
2023-02-12T17:59:16.890Z,94.37
2023-02-12T18:01:43.825Z,94.30
2023-02-12T18:04:10.969Z,94.30
2023-02-12T18:06:37.841Z,94.20
2023-02-12T18:09:05.229Z,94.03
2023-02-12T18:11:33.310Z,94.56
2023-02-12T18:14:00.526Z,94.27
2023-02-12T18:16:30.405Z,94.32
2023-02-12T18:18:57.355Z,94.26
2023-02-12T18:21:24.048Z,94.52
2023-02-12T18:23:50.605Z,94.76
2023-02-12T18:26:18.792Z,95.16
2023-02-12T18:28:46.206Z,95.75
2023-02-12T18:31:13.615Z,95.04
2023-02-12T18:33:40.505Z,95.01
2023-02-12T18:36:13.561Z,94.57
2023-02-12T18:38:42.406Z,94.06
2023-02-12T18:41:13.819Z,94.74
2023-02-12T18:43:40.419Z,94.35
2023-02-12T18:46:12.334Z,94.50
2023-02-12T18:48:39.167Z,95.00
2023-02-12T18:51:07.848Z,94.70
2023-02-12T18:53:34.924Z,95.37
2023-02-12T18:56:06.889Z,96.17
2023-02-12T18:58:34.239Z,95.90
2023-02-12T19:01:01.751Z,96.40
2023-02-12T19:03:28.372Z,96.15
2023-02-12T19:06:03.069Z,95.83
2023-02-12T19:08:29.808Z,96.20
2023-02-12T19:10:56.578Z,96.67
2023-02-12T19:13:24.066Z,95.26
2023-02-12T19:15:51.122Z,96.14
2023-02-12T19:18:18.046Z,97.35
2023-02-12T19:20:45.193Z,98.57
2023-02-12T19:23:11.763Z,97.43
2023-02-12T19:25:45.854Z,97.07
2023-02-12T19:28:13.256Z,97.49
2023-02-12T19:30:41.963Z,97.18
2023-02-12T19:33:09.116Z,97.75
2023-02-12T19:35:35.848Z,97.77
2023-02-12T19:38:03.243Z,97.68
2023-02-12T19:40:29.974Z,97.23
2023-02-12T19:43:02.108Z,97.88
2023-02-12T19:45:28.861Z,97.90
2023-02-12T19:47:55.435Z,97.94
2023-02-12T19:50:22.663Z,97.38
2023-02-12T19:52:49.357Z,98.41
2023-02-12T19:55:16.028Z,98.34
2023-02-12T19:57:43.045Z,98.76
2023-02-12T20:00:10.589Z,99.23
2023-02-12T20:02:37.355Z,99.02
2023-02-12T20:05:04.294Z,99.45
2023-02-12T20:07:31.301Z,99.81
2023-02-12T20:09:58.203Z,99.81
2023-02-12T20:12:25.249Z,100.00
2023-02-12T20:14:55.616Z,100.00
2023-02-12T20:17:22.320Z,100.00
2023-02-12T20:19:49.069Z,100.00
2023-02-12T20:22:16.134Z,100.00
2023-02-12T20:24:42.778Z,100.00
2023-02-12T20:27:11.056Z,100.00
2023-02-12T20:29:37.901Z,100.00
2023-02-12T20:32:04.916Z,100.00
2023-02-12T20:34:39.739Z,100.00
2023-02-12T20:37:17.244Z,100.00
2023-02-12T20:39:43.876Z,100.00
2023-02-12T20:42:11.924Z,100.00
2023-02-12T20:44:38.564Z,100.00
2023-02-12T20:47:05.160Z,100.00
2023-02-12T20:49:32.074Z,100.00
2023-02-12T20:51:58.788Z,100.00
2023-02-12T20:54:26.137Z,100.00
2023-02-12T20:56:52.933Z,100.00
2023-02-12T20:59:20.490Z,100.00
2023-02-12T21:01:48.249Z,100.00
2023-02-12T21:04:17.676Z,100.00
2023-02-12T21:06:46.060Z,100.00
2023-02-12T21:09:14.603Z,100.00
2023-02-12T21:11:45.259Z,100.00
2023-02-12T21:14:23.874Z,100.00
2023-02-12T21:16:56.125Z,100.00
2023-02-12T21:19:24.075Z,100.00
2023-02-12T21:21:51.799Z,100.00
2023-02-12T21:24:25.596Z,100.00
2023-02-12T21:26:54.690Z,100.00
2023-02-12T21:29:22.467Z,100.00
2023-02-12T21:31:51.247Z,100.00
2023-02-12T21:34:21.036Z,100.00
2023-02-12T21:36:48.830Z,100.00
2023-02-12T21:39:25.297Z,100.00
2023-02-12T21:41:55.163Z,100.00
2023-02-12T21:44:24.132Z,100.00
2023-02-12T21:46:51.580Z,100.00
2023-02-12T21:49:28.244Z,100.00
2023-02-12T21:52:02.007Z,100.00
2023-02-12T21:54:29.969Z,100.00
2023-02-12T21:56:58.532Z,100.00
2023-02-12T21:59:26.669Z,100.00
2023-02-12T22:01:56.175Z,100.00
2023-02-12T22:04:23.024Z,100.00
2023-02-12T22:06:52.499Z,100.00
2023-02-12T22:09:21.598Z,100.00
2023-02-12T22:11:48.578Z,100.00
2023-02-12T22:14:18.134Z,100.00
2023-02-12T22:16:45.168Z,100.00
2023-02-12T22:19:12.777Z,100.00
2023-02-12T22:21:41.642Z,100.00
2023-02-12T22:24:11.349Z,100.00
2023-02-12T22:26:37.983Z,100.00
2023-02-12T22:29:07.958Z,100.00
2023-02-12T22:31:37.032Z,100.00
2023-02-12T22:34:08.208Z,100.00
2023-02-12T22:36:37.002Z,100.00
2023-02-12T22:39:05.169Z,100.00
2023-02-12T22:41:32.770Z,100.00
2023-02-12T22:44:00.662Z,100.00
2023-02-12T22:46:28.118Z,100.00
2023-02-12T22:48:54.986Z,100.00
2023-02-12T22:51:22.764Z,100.00
2023-02-12T22:53:49.526Z,100.00
2023-02-12T22:56:16.647Z,100.00
2023-02-12T22:58:44.037Z,100.00
2023-02-12T23:01:13.679Z,100.00
2023-02-12T23:03:41.424Z,100.00
2023-02-12T23:06:12.040Z,100.00
2023-02-12T23:08:39.093Z,100.00
2023-02-12T23:11:07.183Z,100.00
2023-02-12T23:13:35.940Z,100.00
2023-02-12T23:16:02.595Z,100.00
2023-02-12T23:18:29.739Z,100.00
2023-02-12T23:20:56.724Z,100.00
2023-02-12T23:23:23.597Z,100.00
2023-02-12T23:25:50.528Z,100.00
2023-02-12T23:28:17.581Z,100.00
2023-02-12T23:30:44.409Z,100.00
2023-02-12T23:33:11.592Z,100.00
2023-02-12T23:35:38.682Z,100.00
2023-02-12T23:38:05.490Z,100.00
2023-02-12T23:40:33.238Z,100.00
2023-02-12T23:43:00.240Z,100.00
2023-02-12T23:45:28.382Z,100.00
2023-02-12T23:47:55.343Z,100.00
2023-02-12T23:50:22.306Z,100.00
2023-02-12T23:52:49.094Z,100.00
2023-02-12T23:55:16.277Z,100.00
2023-02-12T23:57:42.850Z,100.00
